createdAt,value
2023-02-06T00:00:15.344Z,0.70
2023-02-06T00:03:03.513Z,0.70
2023-02-06T00:05:59.080Z,0.70
2023-02-06T00:08:47.928Z,0.60
2023-02-06T00:11:36.414Z,0.50
2023-02-06T00:14:25.873Z,0.50
2023-02-06T00:17:15.520Z,0.50
2023-02-06T00:20:03.376Z,0.40
2023-02-06T00:22:51.212Z,0.40
2023-02-06T00:25:39.914Z,0.40
2023-02-06T00:28:28.273Z,0.40
2023-02-06T00:31:17.837Z,0.50
2023-02-06T00:34:07.433Z,0.50
2023-02-06T00:36:55.494Z,1.20
2023-02-06T00:39:43.980Z,0.60
2023-02-06T00:42:32.361Z,0.70
2023-02-06T00:45:21.197Z,0.50
2023-02-06T00:48:10.668Z,0.40
2023-02-06T00:51:02.563Z,0.40
2023-02-06T00:53:51.288Z,0.60
2023-02-06T00:56:39.808Z,0.30
2023-02-06T00:59:27.566Z,0.30
2023-02-06T01:02:15.601Z,0.40
2023-02-06T01:05:03.846Z,0.40
2023-02-06T01:07:56.284Z,0.40
2023-02-06T01:10:45.392Z,0.30
2023-02-06T01:13:33.760Z,0.30
2023-02-06T01:16:24.607Z,0.20
2023-02-06T01:19:15.329Z,0.20
2023-02-06T01:22:04.758Z,0.50
2023-02-06T01:24:54.869Z,0.20
2023-02-06T01:27:43.060Z,0.00
2023-02-06T01:30:32.579Z,0.10
2023-02-06T01:33:20.917Z,0.10
2023-02-06T01:36:09.866Z,0.10
2023-02-06T01:38:58.346Z,0.20
2023-02-06T01:41:48.707Z,0.20
2023-02-06T01:44:38.028Z,0.10
2023-02-06T01:47:25.466Z,0.10
2023-02-06T01:50:13.952Z,0.10
2023-02-06T01:53:02.294Z,0.10
2023-02-06T01:55:53.613Z,0.10
2023-02-06T01:58:46.522Z,0.00
2023-02-06T02:01:35.598Z,0.10
2023-02-06T02:04:27.507Z,0.10
2023-02-06T02:07:21.680Z,0.10
2023-02-06T02:10:10.809Z,0.10
2023-02-06T02:12:58.876Z,0.10
2023-02-06T02:16:01.185Z,0.10
2023-02-06T02:19:15.504Z,0.00
2023-02-06T02:22:41.147Z,0.00
2023-02-06T02:26:04.521Z,-0.20
2023-02-06T02:29:20.181Z,-0.10
2023-02-06T02:32:53.181Z,-0.10
2023-02-06T02:36:13.115Z,-0.20
2023-02-06T02:39:14.843Z,-0.20
2023-02-06T02:42:08.636Z,-0.20
2023-02-06T02:45:02.416Z,-0.30
2023-02-06T02:48:01.308Z,-0.20
2023-02-06T02:50:52.258Z,-0.20
2023-02-06T02:53:54.038Z,-0.10
2023-02-06T02:56:43.153Z,0.10
2023-02-06T02:59:47.627Z,0.20
2023-02-06T03:02:44.793Z,-0.20
2023-02-06T03:05:36.912Z,0.40
2023-02-06T03:08:39.897Z,-0.20
2023-02-06T03:11:30.926Z,-0.20
2023-02-06T03:14:29.932Z,-0.20
2023-02-06T03:17:29.663Z,0.00
2023-02-06T03:20:19.014Z,-0.20
2023-02-06T03:23:10.298Z,0.00
2023-02-06T03:28:59.645Z,-0.10
2023-02-06T03:31:50.836Z,-0.10
2023-02-06T03:34:43.791Z,-0.10
2023-02-06T03:37:30.958Z,-0.10
2023-02-06T03:40:18.479Z,-0.10
2023-02-06T03:43:07.034Z,-0.10
2023-02-06T03:46:00.319Z,-0.10
2023-02-06T03:48:49.666Z,0.00
2023-02-06T03:51:41.583Z,0.00
2023-02-06T03:54:30.064Z,0.00
2023-02-06T03:57:19.464Z,-0.10
2023-02-06T04:00:07.318Z,0.00
2023-02-06T04:02:58.481Z,-0.10
2023-02-06T04:05:45.132Z,-0.20
2023-02-06T04:08:32.258Z,-0.10
2023-02-06T04:11:19.308Z,-0.10
2023-02-06T04:14:06.095Z,-0.10
2023-02-06T04:16:52.795Z,-0.20
2023-02-06T04:19:42.185Z,-0.20
2023-02-06T04:22:28.782Z,-0.20
2023-02-06T04:25:15.886Z,-0.30
2023-02-06T04:28:02.909Z,-0.30
2023-02-06T04:30:50.126Z,-0.30
2023-02-06T04:33:36.857Z,-0.40
2023-02-06T04:36:25.447Z,-0.40
2023-02-06T04:39:12.231Z,-0.40
2023-02-06T04:41:58.917Z,-0.50
2023-02-06T04:44:45.864Z,-0.60
2023-02-06T04:47:33.125Z,-0.60
2023-02-06T04:50:20.435Z,-0.60
2023-02-06T04:53:08.627Z,-0.60
2023-02-06T04:55:58.487Z,-0.60
2023-02-06T04:58:45.581Z,-0.60
2023-02-06T05:01:33.568Z,-0.60
2023-02-06T05:04:20.372Z,-0.50
2023-02-06T05:07:07.561Z,-0.50
2023-02-06T05:09:55.663Z,-0.50
2023-02-06T05:12:42.726Z,-0.50
2023-02-06T05:15:29.265Z,-0.40
2023-02-06T05:18:16.043Z,-0.40
2023-02-06T05:21:03.337Z,-0.40
2023-02-06T05:23:50.349Z,-0.40
2023-02-06T05:26:38.440Z,-0.40
2023-02-06T05:29:25.565Z,-0.50
2023-02-06T05:32:12.319Z,-0.40
2023-02-06T05:34:59.408Z,-0.40
2023-02-06T05:37:46.321Z,-0.40
2023-02-06T05:40:33.697Z,-0.50
2023-02-06T05:43:22.141Z,-0.50
2023-02-06T05:46:09.592Z,-0.50
2023-02-06T05:48:56.457Z,-0.50
2023-02-06T05:51:43.438Z,-0.50
2023-02-06T05:54:30.439Z,-0.60
2023-02-06T05:57:17.404Z,-0.50
2023-02-06T06:00:07.100Z,-0.50
2023-02-06T06:02:54.236Z,-0.50
2023-02-06T06:05:41.297Z,-0.60
2023-02-06T06:08:28.157Z,-0.60
2023-02-06T06:11:15.291Z,-0.60
2023-02-06T06:14:01.778Z,-0.50
2023-02-06T06:16:50.059Z,-0.60
2023-02-06T06:19:37.103Z,-0.60
2023-02-06T06:22:23.988Z,-0.60
2023-02-06T06:25:10.752Z,-0.50
2023-02-06T06:27:57.718Z,-0.50
2023-02-06T06:30:44.745Z,-0.50
2023-02-06T06:33:33.204Z,-0.60
2023-02-06T06:36:19.978Z,-0.60
2023-02-06T06:39:06.786Z,-0.60
2023-02-06T06:41:53.624Z,-0.60
2023-02-06T06:44:40.630Z,-0.60
2023-02-06T06:47:27.374Z,-0.60
2023-02-06T06:50:15.678Z,-0.60
2023-02-06T06:53:02.761Z,-0.60
2023-02-06T06:55:50.485Z,-0.60
2023-02-06T06:58:37.670Z,-0.50
2023-02-06T07:01:24.886Z,-0.50
2023-02-06T07:04:11.949Z,-0.50
2023-02-06T07:07:00.697Z,-0.50
2023-02-06T07:09:47.772Z,-0.50
2023-02-06T07:12:35.387Z,-0.50
2023-02-06T07:15:22.510Z,-0.40
2023-02-06T07:18:11.732Z,-0.50
2023-02-06T07:20:59.101Z,-0.40
2023-02-06T07:23:47.138Z,-0.30
2023-02-06T07:26:34.203Z,-0.40
2023-02-06T07:29:21.190Z,-0.50
2023-02-06T07:32:08.163Z,-0.50
2023-02-06T07:34:54.955Z,-0.50
2023-02-06T07:37:42.124Z,-0.60
2023-02-06T07:40:44.062Z,-0.50
2023-02-06T07:43:31.586Z,-0.60
2023-02-06T07:46:18.355Z,-0.50
2023-02-06T07:49:05.198Z,-0.50
2023-02-06T07:51:52.200Z,-0.40
2023-02-06T07:54:38.990Z,-0.20
2023-02-06T07:57:27.360Z,0.10
2023-02-06T08:19:20.976Z,0.10
2023-02-06T08:22:08.374Z,0.10
2023-02-06T08:24:55.682Z,0.20
2023-02-06T08:27:43.216Z,0.20
2023-02-06T09:50:57.960Z,0.40
2023-02-06T09:53:59.623Z,0.40
2023-02-06T09:56:53.798Z,0.40
2023-02-06T09:59:45.883Z,0.40
2023-02-06T10:02:51.808Z,0.50
2023-02-06T10:05:48.468Z,0.40
2023-02-06T10:08:41.009Z,0.50
2023-02-06T10:11:38.526Z,0.50
2023-02-06T10:14:32.226Z,0.60
2023-02-06T10:17:23.178Z,0.70
2023-02-06T10:20:14.337Z,0.80
2023-02-06T10:23:14.966Z,0.90
2023-02-06T10:26:12.341Z,0.90
2023-02-06T10:29:01.256Z,1.00
2023-02-06T10:31:59.211Z,0.90
2023-02-06T10:35:19.763Z,0.70
2023-02-06T10:39:00.660Z,0.60
2023-02-06T10:41:57.257Z,0.70
2023-02-06T10:44:51.521Z,0.80
2023-02-06T10:47:44.863Z,1.00
2023-02-06T10:50:35.735Z,1.00
2023-02-06T10:53:28.914Z,1.10
2023-02-06T10:56:19.176Z,1.20
2023-02-06T10:59:14.736Z,1.10
2023-02-06T11:02:31.828Z,1.00
2023-02-06T11:05:23.481Z,1.00
2023-02-06T11:08:19.982Z,1.00
2023-02-06T11:11:20.203Z,1.20
2023-02-06T11:14:16.832Z,1.30
2023-02-06T11:17:04.156Z,1.20
2023-02-06T11:19:53.747Z,1.20
2023-02-06T11:22:52.078Z,1.20
2023-02-06T11:25:40.117Z,1.30
2023-02-06T11:28:27.742Z,1.40
2023-02-06T11:31:16.333Z,1.50
2023-02-06T11:34:03.362Z,1.70
2023-02-06T11:36:54.103Z,1.80
2023-02-06T11:39:41.100Z,1.70
2023-02-06T11:42:28.507Z,1.60
2023-02-06T11:45:26.287Z,1.60
2023-02-06T11:48:33.915Z,1.70
2023-02-06T11:51:20.967Z,1.70
2023-02-06T11:54:07.729Z,1.80
2023-02-06T11:57:03.317Z,1.50
2023-02-06T11:59:54.063Z,1.40
2023-02-06T12:02:41.251Z,1.90
2023-02-06T12:05:36.327Z,2.20
2023-02-06T12:08:24.873Z,1.80
2023-02-06T12:11:17.587Z,1.50
2023-02-06T12:14:08.181Z,1.80
2023-02-06T12:16:55.295Z,2.00
2023-02-06T12:19:51.072Z,2.00
2023-02-06T12:22:45.197Z,2.00
2023-02-06T12:25:35.791Z,1.90
2023-02-06T12:28:30.287Z,1.90
2023-02-06T12:31:24.203Z,1.80
2023-02-06T12:34:15.092Z,1.90
2023-02-06T12:37:14.441Z,2.00
2023-02-06T12:40:03.313Z,2.10
2023-02-06T12:42:58.081Z,1.90
2023-02-06T12:45:51.234Z,1.90
2023-02-06T12:48:45.079Z,1.60
2023-02-06T12:51:40.382Z,1.50
2023-02-06T12:54:33.270Z,1.30
2023-02-06T12:57:25.721Z,1.10
2023-02-06T13:00:45.033Z,0.90
2023-02-06T13:03:35.453Z,0.90
2023-02-06T13:06:24.671Z,0.90
2023-02-06T13:09:21.382Z,1.10
2023-02-06T13:12:13.127Z,1.20
2023-02-06T13:15:05.616Z,1.30
2023-02-06T13:17:54.432Z,1.20
2023-02-06T13:21:16.366Z,1.10
2023-02-06T13:24:20.058Z,1.00
2023-02-06T13:27:15.259Z,1.10
2023-02-06T13:30:18.924Z,1.10
2023-02-06T13:33:15.890Z,1.00
2023-02-06T13:36:05.507Z,1.00
2023-02-06T13:38:56.875Z,1.00
2023-02-06T13:41:44.720Z,0.90
2023-02-06T13:44:34.840Z,0.70
2023-02-06T13:47:54.034Z,0.80
2023-02-06T13:50:53.970Z,0.90
2023-02-06T13:54:12.725Z,0.80
2023-02-06T13:57:19.133Z,0.80
2023-02-06T14:00:13.186Z,0.60
2023-02-06T14:03:14.420Z,0.70
2023-02-06T14:06:08.857Z,0.60
2023-02-06T14:09:04.374Z,0.40
2023-02-06T14:12:18.199Z,0.30
2023-02-06T14:15:15.301Z,0.40
2023-02-06T14:18:33.632Z,0.50
2023-02-06T14:21:35.342Z,0.50
2023-02-06T14:24:38.631Z,0.50
2023-02-06T14:27:42.289Z,0.40
2023-02-06T14:30:38.402Z,0.40
2023-02-06T14:33:50.695Z,0.30
2023-02-06T14:36:55.944Z,0.30
2023-02-06T14:39:51.528Z,0.10
2023-02-06T14:42:41.967Z,0.10
2023-02-06T14:45:38.598Z,0.00
2023-02-06T14:48:35.084Z,-0.20
2023-02-06T14:51:27.852Z,-0.20
2023-02-06T14:54:30.482Z,-0.20
2023-02-06T14:57:24.786Z,-0.30
2023-02-06T15:00:20.779Z,-0.30
2023-02-06T15:03:15.869Z,-0.60
2023-02-06T15:06:05.267Z,-0.50
2023-02-06T15:08:53.558Z,-0.60
2023-02-06T15:11:40.482Z,-0.60
2023-02-06T15:14:29.346Z,-0.50
2023-02-06T15:17:20.998Z,-0.70
2023-02-06T15:20:26.045Z,-0.60
2023-02-06T15:23:18.847Z,-0.60
2023-02-06T15:26:16.056Z,-0.70
2023-02-06T15:29:05.817Z,-0.70
2023-02-06T15:31:55.208Z,-0.60
2023-02-06T15:34:44.860Z,-0.70
2023-02-06T15:37:34.249Z,-0.70
2023-02-06T15:40:26.864Z,-0.60
2023-02-06T15:43:20.001Z,-0.70
2023-02-06T15:46:07.908Z,-0.80
2023-02-06T15:48:57.490Z,-0.80
2023-02-06T15:51:53.571Z,-0.80
2023-02-06T15:54:44.941Z,-0.80
2023-02-06T15:57:34.956Z,-0.80
2023-02-06T16:00:25.893Z,-0.80
2023-02-06T16:03:21.553Z,-0.90
2023-02-06T16:06:15.726Z,-1.00
2023-02-06T16:09:07.193Z,-0.90
2023-02-06T16:11:56.995Z,-1.00
2023-02-06T16:14:55.313Z,-1.00
2023-02-06T16:17:43.689Z,-1.10
2023-02-06T16:20:39.631Z,-1.20
2023-02-06T16:23:30.586Z,-1.20
2023-02-06T16:26:19.529Z,-1.20
2023-02-06T16:29:19.004Z,-1.20
2023-02-06T16:32:16.165Z,-1.50
2023-02-06T16:35:04.940Z,-1.70
2023-02-06T16:37:53.141Z,-1.80
2023-02-06T16:40:40.378Z,-1.70
2023-02-06T16:43:30.659Z,-1.80
2023-02-06T16:46:18.288Z,-1.90
2023-02-06T16:49:11.510Z,-1.90
2023-02-06T16:52:00.879Z,-2.00
2023-02-06T16:54:47.994Z,-2.10
2023-02-06T16:57:38.204Z,-2.10
2023-02-06T17:00:29.496Z,-2.10
2023-02-06T17:03:18.635Z,-2.00
2023-02-06T17:06:06.661Z,-2.10
2023-02-06T17:08:58.523Z,-2.10
2023-02-06T17:11:45.686Z,-2.10
2023-02-06T17:14:32.747Z,-2.00
2023-02-06T17:17:21.774Z,-2.10
2023-02-06T17:20:25.755Z,-2.00
2023-02-06T17:23:12.985Z,-2.10
2023-02-06T17:26:01.440Z,-2.00
2023-02-06T17:28:48.856Z,-2.00
2023-02-06T17:31:35.724Z,-2.00
2023-02-06T17:34:25.509Z,-2.10
2023-02-06T17:37:20.731Z,-2.10
2023-02-06T17:40:09.346Z,-2.00
2023-02-06T17:43:02.155Z,-2.10
2023-02-06T17:45:50.328Z,-2.00
2023-02-06T17:48:42.602Z,-1.90
2023-02-06T17:51:29.504Z,-2.00
2023-02-06T17:54:16.425Z,-2.20
2023-02-06T17:57:03.318Z,-2.10
2023-02-06T17:59:53.644Z,-2.00
2023-02-06T18:02:40.456Z,-2.20
2023-02-06T18:05:27.943Z,-2.20
2023-02-06T18:08:15.556Z,-2.20
2023-02-06T18:11:03.197Z,-2.30
2023-02-06T18:13:51.314Z,-2.30
2023-02-06T18:16:42.858Z,-2.30
2023-02-06T18:19:30.042Z,-2.30
2023-02-06T18:22:20.295Z,-2.30
2023-02-06T18:25:08.489Z,-2.10
2023-02-06T18:27:55.743Z,-2.20
2023-02-06T18:30:43.032Z,-2.20
2023-02-06T18:33:33.768Z,-2.10
2023-02-06T18:36:20.553Z,-2.20
2023-02-06T18:39:07.555Z,-2.20
2023-02-06T18:42:11.384Z,-2.10
2023-02-06T18:44:58.332Z,-2.20
2023-02-06T18:47:45.716Z,-2.20
2023-02-06T18:50:34.090Z,-2.30
2023-02-06T18:53:21.347Z,-2.30
2023-02-06T18:56:08.338Z,-2.20
2023-02-06T18:58:55.374Z,-2.20
2023-02-06T19:01:44.025Z,-2.30
2023-02-06T19:04:31.151Z,-2.40
2023-02-06T19:07:19.599Z,-2.50
2023-02-06T19:10:10.137Z,-2.60
2023-02-06T19:12:57.040Z,-2.60
2023-02-06T19:15:44.066Z,-2.70
2023-02-06T19:18:38.805Z,-2.70
2023-02-06T19:21:28.294Z,-2.80
2023-02-06T19:24:19.537Z,-2.80
2023-02-06T19:27:06.409Z,-2.90
2023-02-06T19:29:53.292Z,-3.00
2023-02-06T19:32:40.980Z,-3.00
2023-02-06T19:35:28.485Z,-3.00
2023-02-06T19:38:15.761Z,-3.00
2023-02-06T19:41:08.359Z,-3.00
2023-02-06T19:43:56.372Z,-3.00
2023-02-06T19:46:42.886Z,-2.90
2023-02-06T19:49:30.080Z,-2.90
2023-02-06T19:52:17.175Z,-2.90
2023-02-06T19:55:04.057Z,-2.80
2023-02-06T19:57:52.366Z,-2.70
2023-02-06T20:00:39.398Z,-2.70
2023-02-06T20:03:26.978Z,-2.60
2023-02-06T20:06:14.946Z,-2.60
2023-02-06T20:09:02.257Z,-2.60
2023-02-06T20:11:50.194Z,-2.60
2023-02-06T20:14:38.150Z,-2.60
2023-02-06T20:17:26.959Z,-2.60
2023-02-06T20:20:14.593Z,-2.60
2023-02-06T20:23:01.687Z,-2.70
2023-02-06T20:25:48.760Z,-2.70
2023-02-06T20:28:35.468Z,-2.80
2023-02-06T20:31:24.085Z,-2.80
2023-02-06T20:34:11.344Z,-2.90
2023-02-06T20:36:58.744Z,-2.90
2023-02-06T20:39:45.625Z,-2.90
2023-02-06T20:42:34.388Z,-2.80
2023-02-06T20:45:21.310Z,-2.80
2023-02-06T20:48:09.982Z,-2.80
2023-02-06T20:51:00.941Z,-2.80
2023-02-06T20:53:47.911Z,-2.70
2023-02-06T20:56:34.989Z,-2.70
2023-02-06T20:59:22.183Z,-2.70
2023-02-06T21:02:10.996Z,-2.70
2023-02-06T21:04:59.463Z,-2.70
2023-02-06T21:07:46.226Z,-2.60
2023-02-06T21:10:33.301Z,-2.60
2023-02-06T21:13:20.638Z,-2.60
2023-02-06T21:16:08.871Z,-2.50
2023-02-06T21:18:56.034Z,-2.60
2023-02-06T21:21:46.373Z,-2.50
2023-02-06T21:24:33.513Z,-2.60
2023-02-06T21:27:20.374Z,-2.60
2023-02-06T21:30:08.964Z,-2.60
2023-02-06T21:32:56.332Z,-2.60
2023-02-06T21:35:50.618Z,-2.60
2023-02-06T21:38:39.951Z,-2.60
2023-02-06T21:41:27.208Z,-2.60
2023-02-06T21:44:14.689Z,-2.50
2023-02-06T21:47:01.945Z,-2.50
2023-02-06T21:49:48.688Z,-2.50
2023-02-06T21:52:36.475Z,-2.50
2023-02-06T21:55:25.363Z,-2.50
2023-02-06T21:58:14.567Z,-2.60
2023-02-06T22:01:02.022Z,-2.60
2023-02-06T22:03:49.584Z,-2.60
2023-02-06T22:06:37.573Z,-2.60
2023-02-06T22:09:24.540Z,-2.60
2023-02-06T22:12:12.660Z,-2.60
2023-02-06T22:14:59.806Z,-2.60
2023-02-06T22:17:46.958Z,-2.70
2023-02-06T22:20:34.096Z,-2.60
2023-02-06T22:23:20.938Z,-2.70
2023-02-06T22:26:08.899Z,-2.60
2023-02-06T22:28:58.633Z,-2.60
2023-02-06T22:31:46.290Z,-2.60
2023-02-06T22:34:33.985Z,-2.60
2023-02-06T22:37:22.119Z,-2.60
2023-02-06T22:40:09.725Z,-2.60
2023-02-06T22:42:56.867Z,-2.60
2023-02-06T22:45:45.060Z,-2.50
2023-02-06T22:48:32.131Z,-2.60
2023-02-06T22:51:19.340Z,-2.60
2023-02-06T22:54:09.386Z,-2.60
2023-02-06T22:56:56.748Z,-2.60
2023-02-06T22:59:43.577Z,-2.60
2023-02-06T23:02:31.846Z,-2.60
2023-02-06T23:05:18.666Z,-2.60
2023-02-06T23:08:06.171Z,-2.60
2023-02-06T23:10:53.050Z,-2.60
2023-02-06T23:13:40.842Z,-2.60
2023-02-06T23:16:28.660Z,-2.60
2023-02-06T23:19:16.921Z,-2.70
2023-02-06T23:22:03.810Z,-2.70
2023-02-06T23:24:51.714Z,-2.90
2023-02-06T23:27:38.506Z,-2.50
2023-02-06T23:30:25.571Z,-3.00
2023-02-06T23:33:15.477Z,-3.10
2023-02-06T23:36:06.168Z,-3.20
2023-02-06T23:38:53.464Z,-3.30
2023-02-06T23:41:40.694Z,-3.30
2023-02-06T23:44:29.952Z,-3.40
2023-02-06T23:47:17.201Z,-3.40
2023-02-06T23:50:04.306Z,-3.50
2023-02-06T23:52:53.071Z,-3.50
2023-02-06T23:55:40.516Z,-3.60
2023-02-06T23:58:27.578Z,-3.60
